sensor_id;sensor_type;location;lat;lon;timestamp;pressure;altitude;pressure_sealevel;temperature;humidity
41945;BME280;63122;52.424;13.458;2023-04-26T00:03:28;100723.34;;;4.71;100.00
41945;BME280;63122;52.424;13.458;2023-04-26T00:05:30;100716.72;;;4.78;100.00
41945;BME280;63122;52.424;13.458;2023-04-26T00:07:29;100714.56;;;4.72;100.00
41945;BME280;63122;52.424;13.458;2023-04-26T00:38:32;100714.53;;;4.23;100.00
41945;BME280;63122;52.424;13.458;2023-04-26T00:45:37;100722.38;;;4.10;100.00
41945;BME280;63122;52.424;13.458;2023-04-26T00:49:04;100728.13;;;4.15;100.00
41945;BME280;63122;52.424;13.458;2023-04-26T01:06:03;100732.63;;;4.13;100.00
41945;BME280;63122;52.424;13.458;2023-04-26T01:08:23;100722.91;;;4.02;100.00
41945;BME280;63122;52.424;13.458;2023-04-26T01:10:22;100729.22;;;4.00;100.00
41945;BME280;63122;52.424;13.458;2023-04-26T01:12:21;100730.59;;;3.93;100.00
41945;BME280;63122;52.424;13.458;2023-04-26T01:14:18;100726.41;;;3.90;100.00
41945;BME280;63122;52.424;13.458;2023-04-26T01:16:14;100721.81;;;3.94;100.00
41945;BME280;63122;52.424;13.458;2023-04-26T01:18:10;100728.06;;;4.04;100.00
41945;BME280;63122;52.424;13.458;2023-04-26T01:20:07;100725.66;;;4.01;100.00
41945;BME280;63122;52.424;13.458;2023-04-26T01:22:05;100733.38;;;4.02;100.00
41945;BME280;63122;52.424;13.458;2023-04-26T01:24:04;100734.75;;;3.95;100.00
41945;BME280;63122;52.424;13.458;2023-04-26T01:25:59;100734.31;;;4.01;100.00
41945;BME280;63122;52.424;13.458;2023-04-26T01:27:55;100739.66;;;4.00;100.00
41945;BME280;63122;52.424;13.458;2023-04-26T01:29:50;100744.59;;;3.79;100.00
41945;BME280;63122;52.424;13.458;2023-04-26T01:31:46;100740.69;;;3.84;100.00
41945;BME280;63122;52.424;13.458;2023-04-26T01:33:54;100742.59;;;3.82;100.00
41945;BME280;63122;52.424;13.458;2023-04-26T01:36:01;100742.59;;;3.69;100.00
41945;BME280;63122;52.424;13.458;2023-04-26T01:38:05;100750.00;;;3.75;100.00
41945;BME280;63122;52.424;13.458;2023-04-26T01:40:40;100753.25;;;3.79;100.00
41945;BME280;63122;52.424;13.458;2023-04-26T01:43:00;100756.56;;;3.68;100.00
41945;BME280;63122;52.424;13.458;2023-04-26T01:45:27;100748.31;;;3.74;100.00
41945;BME280;63122;52.424;13.458;2023-04-26T01:48:01;100760.34;;;3.64;100.00
41945;BME280;63122;52.424;13.458;2023-04-26T01:50:06;100756.50;;;3.70;100.00
41945;BME280;63122;52.424;13.458;2023-04-26T01:52:04;100753.66;;;3.73;100.00
41945;BME280;63122;52.424;13.458;2023-04-26T01:54:24;100754.47;;;3.73;100.00
41945;BME280;63122;52.424;13.458;2023-04-26T01:56:38;100759.63;;;3.62;100.00
41945;BME280;63122;52.424;13.458;2023-04-26T01:59:09;100757.94;;;3.61;100.00
41945;BME280;63122;52.424;13.458;2023-04-26T02:01:20;100752.50;;;3.51;100.00
41945;BME280;63122;52.424;13.458;2023-04-26T02:04:10;100757.94;;;3.61;100.00
41945;BME280;63122;52.424;13.458;2023-04-26T02:06:54;100756.69;;;3.54;100.00
41945;BME280;63122;52.424;13.458;2023-04-26T02:09:21;100756.91;;;3.51;100.00
41945;BME280;63122;52.424;13.458;2023-04-26T02:11:36;100747.28;;;3.51;100.00
41945;BME280;63122;52.424;13.458;2023-04-26T02:13:42;100755.53;;;3.45;100.00
41945;BME280;63122;52.424;13.458;2023-04-26T02:15:52;100763.66;;;3.40;100.00
41945;BME280;63122;52.424;13.458;2023-04-26T02:17:49;100756.34;;;3.45;100.00
41945;BME280;63122;52.424;13.458;2023-04-26T02:19:46;100757.41;;;3.43;100.00
41945;BME280;63122;52.424;13.458;2023-04-26T02:21:53;100745.72;;;3.36;100.00
41945;BME280;63122;52.424;13.458;2023-04-26T02:23:50;100751.34;;;3.42;100.00
41945;BME280;63122;52.424;13.458;2023-04-26T02:25:48;100750.75;;;3.39;100.00
41945;BME280;63122;52.424;13.458;2023-04-26T02:27:48;100759.88;;;3.31;100.00
41945;BME280;63122;52.424;13.458;2023-04-26T02:29:47;100760.31;;;3.25;100.00
41945;BME280;63122;52.424;13.458;2023-04-26T02:31:44;100754.06;;;3.28;100.00
41945;BME280;63122;52.424;13.458;2023-04-26T02:33:41;100751.03;;;3.34;100.00
41945;BME280;63122;52.424;13.458;2023-04-26T02:35:39;100750.00;;;3.37;100.00
41945;BME280;63122;52.424;13.458;2023-04-26T02:37:34;100755.41;;;3.34;100.00
41945;BME280;63122;52.424;13.458;2023-04-26T02:39:30;100754.06;;;3.28;100.00
41945;BME280;63122;52.424;13.458;2023-04-26T02:41:25;100755.00;;;3.27;100.00
41945;BME280;63122;52.424;13.458;2023-04-26T02:43:23;100752.38;;;3.27;100.00
41945;BME280;63122;52.424;13.458;2023-04-26T02:45:18;100751.53;;;3.26;100.00
41945;BME280;63122;52.424;13.458;2023-04-26T02:47:14;100752.19;;;3.30;100.00
41945;BME280;63122;52.424;13.458;2023-04-26T02:49:09;100758.53;;;3.26;100.00
41945;BME280;63122;52.424;13.458;2023-04-26T02:51:01;100753.63;;;3.21;100.00
41945;BME280;63122;52.424;13.458;2023-04-26T02:52:57;100751.66;;;3.25;100.00
41945;BME280;63122;52.424;13.458;2023-04-26T02:54:52;100756.66;;;3.28;100.00
41945;BME280;63122;52.424;13.458;2023-04-26T02:56:48;100752.59;;;3.24;100.00
41945;BME280;63122;52.424;13.458;2023-04-26T02:58:46;100750.00;;;3.24;100.00
41945;BME280;63122;52.424;13.458;2023-04-26T03:00:44;100748.19;;;3.24;100.00
41945;BME280;63122;52.424;13.458;2023-04-26T03:02:40;100754.13;;;3.13;100.00
41945;BME280;63122;52.424;13.458;2023-04-26T03:04:35;100753.91;;;3.16;100.00
41945;BME280;63122;52.424;13.458;2023-04-26T03:06:31;100755.06;;;3.12;100.00
41945;BME280;63122;52.424;13.458;2023-04-26T03:08:26;100757.66;;;3.12;100.00
41945;BME280;63122;52.424;13.458;2023-04-26T03:10:22;100759.13;;;3.16;100.00
41945;BME280;63122;52.424;13.458;2023-04-26T03:12:18;100751.88;;;2.94;100.00
41945;BME280;63122;52.424;13.458;2023-04-26T03:14:17;100761.19;;;2.98;100.00
41945;BME280;63122;52.424;13.458;2023-04-26T03:16:12;100761.66;;;2.91;100.00
41945;BME280;63122;52.424;13.458;2023-04-26T03:18:09;100768.94;;;2.85;100.00
41945;BME280;63122;52.424;13.458;2023-04-26T03:20:05;100766.47;;;2.84;100.00
41945;BME280;63122;52.424;13.458;2023-04-26T03:22:02;100759.25;;;2.87;100.00
41945;BME280;63122;52.424;13.458;2023-04-26T03:23:58;100763.84;;;2.84;100.00
41945;BME280;63122;52.424;13.458;2023-04-26T03:25:53;100763.00;;;2.83;100.00
41945;BME280;63122;52.424;13.458;2023-04-26T03:27:48;100775.50;;;2.78;100.00
41945;BME280;63122;52.424;13.458;2023-04-26T03:29:46;100764.44;;;2.74;100.00
41945;BME280;63122;52.424;13.458;2023-04-26T03:31:41;100763.13;;;2.82;100.00
41945;BME280;63122;52.424;13.458;2023-04-26T03:33:37;100768.00;;;2.86;100.00
41945;BME280;63122;52.424;13.458;2023-04-26T03:35:32;100774.16;;;2.85;100.00
41945;BME280;63122;52.424;13.458;2023-04-26T03:37:28;100768.94;;;2.85;100.00
41945;BME280;63122;52.424;13.458;2023-04-26T03:39:23;100762.72;;;2.88;100.00
41945;BME280;63122;52.424;13.458;2023-04-26T03:41:18;100772.69;;;2.81;100.00
41945;BME280;63122;52.424;13.458;2023-04-26T03:43:13;100770.38;;;2.77;100.00
41945;BME280;63122;52.424;13.458;2023-04-26T03:45:12;100768.81;;;2.74;100.00
41945;BME280;63122;52.424;13.458;2023-04-26T03:47:07;100776.63;;;2.74;100.00
41945;BME280;63122;52.424;13.458;2023-04-26T03:49:02;100778.19;;;2.77;100.00
41945;BME280;63122;52.424;13.458;2023-04-26T03:50:57;100773.38;;;2.70;100.00
41945;BME280;63122;52.424;13.458;2023-04-26T03:52:53;100782.13;;;2.69;100.00
41945;BME280;63122;52.424;13.458;2023-04-26T03:54:50;100774.84;;;2.74;100.00
41945;BME280;63122;52.424;13.458;2023-04-26T03:56:45;100771.41;;;2.74;100.00
41945;BME280;63122;52.424;13.458;2023-04-26T03:58:41;100779.03;;;2.77;100.00
41945;BME280;63122;52.424;13.458;2023-04-26T04:00:40;100779.44;;;2.71;100.00
41945;BME280;63122;52.424;13.458;2023-04-26T04:02:35;100782.97;;;2.70;100.00
41945;BME280;63122;52.424;13.458;2023-04-26T04:04:31;100783.41;;;2.77;100.00
41945;BME280;63122;52.424;13.458;2023-04-26T04:06:29;100788.59;;;2.77;100.00
41945;BME280;63122;52.424;13.458;2023-04-26T04:08:27;100789.34;;;2.79;100.00
41945;BME280;63122;52.424;13.458;2023-04-26T04:10:25;100793.53;;;2.81;100.00
41945;BME280;63122;52.424;13.458;2023-04-26T04:12:21;100781.16;;;2.85;100.00
41945;BME280;63122;52.424;13.458;2023-04-26T04:14:18;100786.94;;;2.76;100.00
41945;BME280;63122;52.424;13.458;2023-04-26T04:16:19;100792.81;;;2.79;100.00
41945;BME280;63122;52.424;13.458;2023-04-26T04:18:20;100795.59;;;2.76;100.00
41945;BME280;63122;52.424;13.458;2023-04-26T04:20:21;100794.00;;;2.73;100.00
41945;BME280;63122;52.424;13.458;2023-04-26T04:22:20;100792.34;;;2.72;100.00
41945;BME280;63122;52.424;13.458;2023-04-26T04:24:21;100788.00;;;2.73;100.00
41945;BME280;63122;52.424;13.458;2023-04-26T04:26:23;100796.44;;;2.77;100.00
41945;BME280;63122;52.424;13.458;2023-04-26T04:28:20;100799.88;;;2.77;100.00
41945;BME280;63122;52.424;13.458;2023-04-26T04:30:17;100811.13;;;2.78;100.00
41945;BME280;63122;52.424;13.458;2023-04-26T04:32:19;100796.94;;;2.69;100.00
41945;BME280;63122;52.424;13.458;2023-04-26T04:34:20;100798.69;;;2.68;100.00
41945;BME280;63122;52.424;13.458;2023-04-26T04:36:22;100795.16;;;2.69;100.00
41945;BME280;63122;52.424;13.458;2023-04-26T04:38:19;100802.78;;;2.72;100.00
41945;BME280;63122;52.424;13.458;2023-04-26T04:40:19;100804.34;;;2.75;100.00
41945;BME280;63122;52.424;13.458;2023-04-26T04:42:28;100811.25;;;2.76;100.00
41945;BME280;63122;52.424;13.458;2023-04-26T04:44:26;100814.78;;;2.75;100.00
41945;BME280;63122;52.424;13.458;2023-04-26T04:46:23;100804.44;;;2.73;100.00
41945;BME280;63122;52.424;13.458;2023-04-26T04:48:22;100804.16;;;2.78;100.00
41945;BME280;63122;52.424;13.458;2023-04-26T04:50:17;100813.25;;;2.85;100.00
41945;BME280;63122;52.424;13.458;2023-04-26T04:52:18;100809.91;;;2.83;100.00
41945;BME280;63122;52.424;13.458;2023-04-26T04:54:17;100814.72;;;2.90;100.00
41945;BME280;63122;52.424;13.458;2023-04-26T04:56:17;100822.31;;;2.80;100.00
41945;BME280;63122;52.424;13.458;2023-04-26T04:58:19;100817.31;;;2.90;100.00
41945;BME280;63122;52.424;13.458;2023-04-26T05:00:19;100834.34;;;2.95;100.00
41945;BME280;63122;52.424;13.458;2023-04-26T05:02:19;100819.13;;;2.89;100.00
41945;BME280;63122;52.424;13.458;2023-04-26T05:04:23;100832.13;;;2.89;100.00
41945;BME280;63122;52.424;13.458;2023-04-26T05:06:27;100830.28;;;2.91;100.00
41945;BME280;63122;52.424;13.458;2023-04-26T05:08:27;100823.59;;;2.87;100.00
41945;BME280;63122;52.424;13.458;2023-04-26T05:10:26;100826.66;;;2.94;100.00
41945;BME280;63122;52.424;13.458;2023-04-26T05:12:26;100830.59;;;2.99;100.00
41945;BME280;63122;52.424;13.458;2023-04-26T05:14:29;100825.13;;;3.04;100.00
41945;BME280;63122;52.424;13.458;2023-04-26T05:16:29;100833.00;;;3.02;100.00
41945;BME280;63122;52.424;13.458;2023-04-26T05:18:27;100830.53;;;3.01;100.00
41945;BME280;63122;52.424;13.458;2023-04-26T05:20:30;100831.78;;;3.08;100.00
41945;BME280;63122;52.424;13.458;2023-04-26T05:22:29;100842.03;;;3.11;100.00
41945;BME280;63122;52.424;13.458;2023-04-26T05:24:32;100840.25;;;3.12;100.00
41945;BME280;63122;52.424;13.458;2023-04-26T05:26:33;100847.97;;;3.13;100.00
41945;BME280;63122;52.424;13.458;2023-04-26T05:28:35;100843.28;;;3.19;100.00
41945;BME280;63122;52.424;13.458;2023-04-26T05:30:35;100844.88;;;3.21;100.00
41945;BME280;63122;52.424;13.458;2023-04-26T05:32:36;100853.16;;;3.28;100.00
41945;BME280;63122;52.424;13.458;2023-04-26T05:34:38;100842.91;;;3.25;100.00
41945;BME280;63122;52.424;13.458;2023-04-26T05:36:44;100847.94;;;3.28;100.00
41945;BME280;63122;52.424;13.458;2023-04-26T05:38:42;100842.81;;;3.26;100.00
41945;BME280;63122;52.424;13.458;2023-04-26T05:40:44;100849.41;;;3.32;100.00
41945;BME280;63122;52.424;13.458;2023-04-26T05:42:45;100852.22;;;3.29;100.00
41945;BME280;63122;52.424;13.458;2023-04-26T05:44:45;100854.50;;;3.34;100.00
41945;BME280;63122;52.424;13.458;2023-04-26T05:46:42;100856.16;;;3.35;100.00
41945;BME280;63122;52.424;13.458;2023-04-26T05:48:42;100856.53;;;3.43;100.00
41945;BME280;63122;52.424;13.458;2023-04-26T05:50:39;100855.19;;;3.50;100.00
41945;BME280;63122;52.424;13.458;2023-04-26T05:52:44;100849.97;;;3.50;100.00
41945;BME280;63122;52.424;13.458;2023-04-26T05:54:45;100858.63;;;3.51;100.00
41945;BME280;63122;52.424;13.458;2023-04-26T05:56:46;100860.84;;;3.57;100.00
41945;BME280;63122;52.424;13.458;2023-04-26T05:58:46;100867.59;;;3.59;100.00
41945;BME280;63122;52.424;13.458;2023-04-26T06:00:47;100865.00;;;3.59;100.00
41945;BME280;63122;52.424;13.458;2023-04-26T06:02:46;100867.53;;;3.61;100.00
41945;BME280;63122;52.424;13.458;2023-04-26T06:04:47;100868.16;;;3.65;100.00
41945;BME280;63122;52.424;13.458;2023-04-26T06:06:47;100863.47;;;3.70;100.00
41945;BME280;63122;52.424;13.458;2023-04-26T06:08:50;100871.91;;;3.73;100.00
41945;BME280;63122;52.424;13.458;2023-04-26T06:10:52;100872.25;;;3.82;100.00
41945;BME280;63122;52.424;13.458;2023-04-26T06:12:51;100871.63;;;3.78;100.00
41945;BME280;63122;52.424;13.458;2023-04-26T06:14:51;100879.25;;;3.81;100.00
41945;BME280;63122;52.424;13.458;2023-04-26T06:16:50;100872.66;;;3.88;100.00
41945;BME280;63122;52.424;13.458;2023-04-26T06:18:52;100871.00;;;3.87;100.00
41945;BME280;63122;52.424;13.458;2023-04-26T06:20:54;100877.34;;;3.83;100.00
41945;BME280;63122;52.424;13.458;2023-04-26T06:22:56;100876.84;;;3.91;100.00
41945;BME280;63122;52.424;13.458;2023-04-26T06:25:01;100876.44;;;3.97;100.00
41945;BME280;63122;52.424;13.458;2023-04-26T06:27:01;100875.41;;;4.00;100.00
41945;BME280;63122;52.424;13.458;2023-04-26T06:29:02;100876.00;;;4.03;100.00
41945;BME280;63122;52.424;13.458;2023-04-26T06:31:00;100874.25;;;4.04;100.00
41945;BME280;63122;52.424;13.458;2023-04-26T06:32:59;100881.06;;;4.07;100.00
41945;BME280;63122;52.424;13.458;2023-04-26T06:34:57;100866.84;;;4.11;100.00
41945;BME280;63122;52.424;13.458;2023-04-26T06:36:57;100878.13;;;4.11;100.00
41945;BME280;63122;52.424;13.458;2023-04-26T06:38:55;100869.66;;;4.21;100.00
41945;BME280;63122;52.424;13.458;2023-04-26T06:40:59;100879.69;;;4.27;100.00
41945;BME280;63122;52.424;13.458;2023-04-26T06:42:56;100876.66;;;4.33;100.00
41945;BME280;63122;52.424;13.458;2023-04-26T06:44:53;100884.28;;;4.36;100.00
41945;BME280;63122;52.424;13.458;2023-04-26T06:46:52;100875.63;;;4.36;100.00
41945;BME280;63122;52.424;13.458;2023-04-26T06:48:51;100871.13;;;4.38;100.00
41945;BME280;63122;52.424;13.458;2023-04-26T06:50:48;100880.41;;;4.42;100.00
41945;BME280;63122;52.424;13.458;2023-04-26T06:52:44;100883.53;;;4.47;100.00
41945;BME280;63122;52.424;13.458;2023-04-26T06:54:39;100883.22;;;4.52;100.00
41945;BME280;63122;52.424;13.458;2023-04-26T06:56:50;100880.72;;;4.50;100.00
41945;BME280;63122;52.424;13.458;2023-04-26T06:58:57;100871.84;;;4.53;100.00
41945;BME280;63122;52.424;13.458;2023-04-26T07:00:54;100862.19;;;4.53;100.00
41945;BME280;63122;52.424;13.458;2023-04-26T07:02:49;100872.84;;;4.63;100.00
41945;BME280;63122;52.424;13.458;2023-04-26T07:04:44;100875.47;;;4.63;100.00
41945;BME280;63122;52.424;13.458;2023-04-26T07:06:40;100880.25;;;4.69;100.00
41945;BME280;63122;52.424;13.458;2023-04-26T07:08:35;100882.97;;;4.81;100.00
41945;BME280;63122;52.424;13.458;2023-04-26T07:10:30;100888.78;;;4.84;100.00
41945;BME280;63122;52.424;13.458;2023-04-26T07:12:28;100887.44;;;4.92;100.00
41945;BME280;63122;52.424;13.458;2023-04-26T07:14:24;100887.06;;;4.96;100.00
41945;BME280;63122;52.424;13.458;2023-04-26T07:16:19;100887.97;;;5.08;100.00
41945;BME280;63122;52.424;13.458;2023-04-26T07:18:14;100892.03;;;5.12;100.00
41945;BME280;63122;52.424;13.458;2023-04-26T07:20:10;100892.72;;;5.03;100.00
41945;BME280;63122;52.424;13.458;2023-04-26T07:22:10;100891.03;;;5.02;100.00
41945;BME280;63122;52.424;13.458;2023-04-26T07:24:06;100897.44;;;4.98;100.00
41945;BME280;63122;52.424;13.458;2023-04-26T07:26:01;100893.03;;;4.98;100.00
41945;BME280;63122;52.424;13.458;2023-04-26T07:28:00;100897.00;;;5.04;100.00
41945;BME280;63122;52.424;13.458;2023-04-26T07:29:56;100890.94;;;5.03;100.00
41945;BME280;63122;52.424;13.458;2023-04-26T07:31:51;100896.81;;;4.94;100.00
41945;BME280;63122;52.424;13.458;2023-04-26T07:33:48;100893.44;;;5.05;100.00
41945;BME280;63122;52.424;13.458;2023-04-26T07:35:44;100886.03;;;5.23;100.00
41945;BME280;63122;52.424;13.458;2023-04-26T07:37:47;100882.06;;;5.30;100.00
41945;BME280;63122;52.424;13.458;2023-04-26T07:39:45;100904.28;;;5.36;100.00
41945;BME280;63122;52.424;13.458;2023-04-26T07:41:41;100891.34;;;5.35;100.00
41945;BME280;63122;52.424;13.458;2023-04-26T07:43:39;100893.72;;;5.38;100.00
41945;BME280;63122;52.424;13.458;2023-04-26T07:45:35;100895.44;;;5.50;100.00
41945;BME280;63122;52.424;13.458;2023-04-26T07:47:30;100894.25;;;5.54;100.00
41945;BME280;63122;52.424;13.458;2023-04-26T07:49:25;100899.84;;;5.50;100.00
41945;BME280;63122;52.424;13.458;2023-04-26T07:51:21;100898.78;;;5.52;100.00
41945;BME280;63122;52.424;13.458;2023-04-26T07:53:16;100901.00;;;5.70;100.00
41945;BME280;63122;52.424;13.458;2023-04-26T07:55:11;100904.66;;;5.67;100.00
41945;BME280;63122;52.424;13.458;2023-04-26T07:57:08;100902.44;;;5.74;100.00
41945;BME280;63122;52.424;13.458;2023-04-26T07:59:06;100898.75;;;5.76;100.00
41945;BME280;63122;52.424;13.458;2023-04-26T08:01:02;100904.47;;;5.82;100.00
41945;BME280;63122;52.424;13.458;2023-04-26T08:02:57;100897.72;;;5.90;100.00
41945;BME280;63122;52.424;13.458;2023-04-26T08:04:53;100905.91;;;5.86;100.00
41945;BME280;63122;52.424;13.458;2023-04-26T08:06:49;100901.41;;;5.99;100.00
41945;BME280;63122;52.424;13.458;2023-04-26T08:08:44;100900.69;;;5.97;100.00
41945;BME280;63122;52.424;13.458;2023-04-26T08:10:42;100916.97;;;6.02;100.00
41945;BME280;63122;52.424;13.458;2023-04-26T08:12:37;100919.00;;;5.86;100.00
41945;BME280;63122;52.424;13.458;2023-04-26T08:14:36;100909.56;;;5.72;100.00
41945;BME280;63122;52.424;13.458;2023-04-26T08:16:31;100910.63;;;5.69;100.00
41945;BME280;63122;52.424;13.458;2023-04-26T08:18:26;100912.41;;;5.69;100.00
41945;BME280;63122;52.424;13.458;2023-04-26T08:20:22;100914.47;;;5.76;100.00
41945;BME280;63122;52.424;13.458;2023-04-26T08:22:17;100913.06;;;5.84;100.00
41945;BME280;63122;52.424;13.458;2023-04-26T08:24:12;100914.03;;;5.94;100.00
41945;BME280;63122;52.424;13.458;2023-04-26T08:26:08;100908.19;;;5.90;100.00
41945;BME280;63122;52.424;13.458;2023-04-26T08:28:03;100907.25;;;5.91;100.00
41945;BME280;63122;52.424;13.458;2023-04-26T08:30:03;100918.53;;;5.81;100.00
41945;BME280;63122;52.424;13.458;2023-04-26T08:31:58;100917.75;;;5.67;100.00
41945;BME280;63122;52.424;13.458;2023-04-26T08:33:54;100915.50;;;5.62;100.00
41945;BME280;63122;52.424;13.458;2023-04-26T08:35:49;100912.41;;;5.69;100.00
41945;BME280;63122;52.424;13.458;2023-04-26T08:37:44;100916.66;;;5.58;100.00
41945;BME280;63122;52.424;13.458;2023-04-26T08:39:39;100923.66;;;5.58;100.00
41945;BME280;63122;52.424;13.458;2023-04-26T08:41:36;100928.97;;;5.45;100.00
41945;BME280;63122;52.424;13.458;2023-04-26T08:43:32;100931.34;;;5.48;100.00
41945;BME280;63122;52.424;13.458;2023-04-26T08:45:33;100919.16;;;5.60;100.00
41945;BME280;63122;52.424;13.458;2023-04-26T08:47:37;100927.28;;;5.68;100.00
41945;BME280;63122;52.424;13.458;2023-04-26T08:49:39;100928.00;;;5.70;100.00
41945;BME280;63122;52.424;13.458;2023-04-26T08:51:35;100924.81;;;5.78;100.00
41945;BME280;63122;52.424;13.458;2023-04-26T08:53:37;100923.53;;;5.95;100.00
41945;BME280;63122;52.424;13.458;2023-04-26T08:55:34;100924.41;;;5.96;100.00
41945;BME280;63122;52.424;13.458;2023-04-26T08:57:31;100929.19;;;6.02;100.00
41945;BME280;63122;52.424;13.458;2023-04-26T08:59:28;100930.88;;;6.03;100.00
41945;BME280;63122;52.424;13.458;2023-04-26T09:01:32;100930.06;;;6.02;100.00
41945;BME280;63122;52.424;13.458;2023-04-26T09:03:27;100934.19;;;6.05;100.00
41945;BME280;63122;52.424;13.458;2023-04-26T09:05:24;100931.00;;;6.01;100.00
41945;BME280;63122;52.424;13.458;2023-04-26T09:07:20;100922.09;;;6.27;100.00
41945;BME280;63122;52.424;13.458;2023-04-26T09:09:17;100924.72;;;6.38;100.00
41945;BME280;63122;52.424;13.458;2023-04-26T09:11:13;100930.22;;;6.69;100.00
41945;BME280;63122;52.424;13.458;2023-04-26T09:13:08;100920.09;;;6.76;100.00
41945;BME280;63122;52.424;13.458;2023-04-26T09:15:05;100922.72;;;6.76;100.00
41945;BME280;63122;52.424;13.458;2023-04-26T09:17:04;100916.28;;;6.91;100.00
41945;BME280;63122;52.424;13.458;2023-04-26T09:19:06;100916.84;;;7.06;100.00
41945;BME280;63122;52.424;13.458;2023-04-26T09:21:07;100915.38;;;7.14;99.06
41945;BME280;63122;52.424;13.458;2023-04-26T09:23:04;100916.00;;;7.06;92.12
41945;BME280;63122;52.424;13.458;2023-04-26T09:25:00;100924.22;;;7.13;89.09
41945;BME280;63122;52.424;13.458;2023-04-26T09:27:00;100912.19;;;6.99;88.47
41945;BME280;63122;52.424;13.458;2023-04-26T09:29:10;100913.56;;;7.26;91.43
41945;BME280;63122;52.424;13.458;2023-04-26T09:31:06;100912.16;;;7.22;90.19
41945;BME280;63122;52.424;13.458;2023-04-26T09:33:04;100919.25;;;7.42;90.64
41945;BME280;63122;52.424;13.458;2023-04-26T09:35:00;100912.88;;;7.24;91.47
41945;BME280;63122;52.424;13.458;2023-04-26T09:36:56;100923.25;;;7.14;89.97
41945;BME280;63122;52.424;13.458;2023-04-26T09:38:51;100924.13;;;7.03;91.22
41945;BME280;63122;52.424;13.458;2023-04-26T09:40:47;100912.44;;;6.96;91.90
41945;BME280;63122;52.424;13.458;2023-04-26T09:42:43;100912.97;;;7.22;94.28
41945;BME280;63122;52.424;13.458;2023-04-26T09:44:39;100918.78;;;7.37;94.59
41945;BME280;63122;52.424;13.458;2023-04-26T09:46:34;100914.03;;;7.31;90.98
41945;BME280;63122;52.424;13.458;2023-04-26T09:48:33;100924.28;;;7.34;94.21
41945;BME280;63122;52.424;13.458;2023-04-26T09:50:30;100922.06;;;7.18;94.07
41945;BME280;63122;52.424;13.458;2023-04-26T09:52:26;100930.44;;;7.00;96.67
41945;BME280;63122;52.424;13.458;2023-04-26T09:54:37;100924.34;;;7.00;99.06
41945;BME280;63122;52.424;13.458;2023-04-26T09:56:33;100931.47;;;7.20;97.88
41945;BME280;63122;52.424;13.458;2023-04-26T09:58:28;100933.16;;;7.10;95.44
41945;BME280;63122;52.424;13.458;2023-04-26T10:00:24;100924.84;;;6.94;98.60
41945;BME280;63122;52.424;13.458;2023-04-26T10:02:25;100920.88;;;7.11;100.00
41945;BME280;63122;52.424;13.458;2023-04-26T10:04:24;100923.00;;;7.17;100.00
41945;BME280;63122;52.424;13.458;2023-04-26T10:06:21;100923.06;;;7.38;97.44
41945;BME280;63122;52.424;13.458;2023-04-26T10:08:22;100918.25;;;7.55;100.00
41945;BME280;63122;52.424;13.458;2023-04-26T10:10:18;100916.28;;;7.68;92.73
41945;BME280;63122;52.424;13.458;2023-04-26T10:12:20;100921.78;;;7.65;92.04
41945;BME280;63122;52.424;13.458;2023-04-26T10:14:16;100921.56;;;7.57;88.57
41945;BME280;63122;52.424;13.458;2023-04-26T10:16:16;100916.31;;;7.24;90.44
41945;BME280;63122;52.424;13.458;2023-04-26T10:18:14;100931.69;;;7.40;90.44
41945;BME280;63122;52.424;13.458;2023-04-26T10:20:18;100928.34;;;7.27;88.64
41945;BME280;63122;52.424;13.458;2023-04-26T10:22:19;100927.69;;;7.13;86.96
41945;BME280;63122;52.424;13.458;2023-04-26T10:24:18;100930.63;;;7.20;87.45
41945;BME280;63122;52.424;13.458;2023-04-26T10:28:55;100923.72;;;7.19;80.64
41945;BME280;63122;52.424;13.458;2023-04-26T10:30:55;100927.75;;;7.34;79.05
41945;BME280;63122;52.424;13.458;2023-04-26T10:33:10;100926.09;;;7.33;81.53
41945;BME280;63122;52.424;13.458;2023-04-26T10:35:11;100921.88;;;7.42;80.26
41945;BME280;63122;52.424;13.458;2023-04-26T10:37:15;100924.09;;;7.58;76.99
41945;BME280;63122;52.424;13.458;2023-04-26T10:39:19;100916.22;;;8.01;77.25
41945;BME280;63122;52.424;13.458;2023-04-26T10:41:34;100918.38;;;8.17;69.92
41945;BME280;63122;52.424;13.458;2023-04-26T10:43:32;100915.19;;;8.34;68.25
41945;BME280;63122;52.424;13.458;2023-04-26T10:45:39;100915.75;;;8.17;65.23
41945;BME280;63122;52.424;13.458;2023-04-26T10:47:37;100920.00;;;7.87;68.49
41945;BME280;63122;52.424;13.458;2023-04-26T10:49:44;100924.09;;;8.01;72.73
41945;BME280;63122;52.424;13.458;2023-04-26T10:52:09;100918.03;;;8.00;69.31
41945;BME280;63122;52.424;13.458;2023-04-26T10:54:21;100914.88;;;8.06;69.62
41945;BME280;63122;52.424;13.458;2023-04-26T10:56:49;100920.13;;;8.06;68.73
41945;BME280;63122;52.424;13.458;2023-04-26T10:59:06;100918.59;;;8.04;66.80
41945;BME280;63122;52.424;13.458;2023-04-26T11:01:04;100918.09;;;8.10;69.13
41945;BME280;63122;52.424;13.458;2023-04-26T11:03:09;100925.72;;;8.13;68.12
41945;BME280;63122;52.424;13.458;2023-04-26T11:05:07;100923.41;;;7.99;70.49
41945;BME280;63122;52.424;13.458;2023-04-26T11:07:02;100919.50;;;8.14;71.92
41945;BME280;63122;52.424;13.458;2023-04-26T11:08:58;100930.63;;;8.28;72.36
41945;BME280;63122;52.424;13.458;2023-04-26T11:11:05;100920.75;;;8.41;71.23
41945;BME280;63122;52.424;13.458;2023-04-26T11:13:03;100919.13;;;8.50;70.72
41945;BME280;63122;52.424;13.458;2023-04-26T11:15:03;100931.50;;;8.59;70.78
41945;BME280;63122;52.424;13.458;2023-04-26T11:16:59;100934.84;;;8.61;69.20